Time;durP1;ratioP1;P1;durP2;ratioP2;P2;SDS_P1;SDS_P2;PMS_P1;PMS_P2;Temp;Humidity;BMP_temperature;BMP_pressure;BME280_temperature;BME280_humidity;BME280_pressure;Samples;Min_cycle;Max_cycle;Signal;HPM_P1;HPM_P2
2021/09/25 00:00:45;;;;;;;6.17;5.47;;;14.10;1.00;;;;;;5039056;28;20901;-50
2021/09/25 00:03:14;;;;;;;6.27;5.67;;;14.10;15.60;;;;;;5054402;28;20466;-52
2021/09/25 00:05:46;;;;;;;6.90;6.17;;;14.10;56.60;;;;;;5053088;28;20540;-52
2021/09/25 00:08:13;;;;;;;7.43;6.60;;;14.10;82.70;;;;;;5053155;28;20830;-55
2021/09/25 00:10:41;;;;;;;6.80;6.10;;;14.10;92.30;;;;;;5036924;28;20449;-56
2021/09/25 00:13:08;;;;;;;6.63;5.93;;;14.10;99.90;;;;;;5039934;28;20493;-51
2021/09/25 00:15:35;;;;;;;6.30;5.70;;;14.10;99.90;;;;;;5056676;28;20474;-55
2021/09/25 00:18:07;;;;;;;6.77;6.17;;;14.10;89.20;;;;;;5057991;28;20831;-54
2021/09/25 00:20:39;;;;;;;7.13;6.50;;;14.10;73.50;;;;;;5058075;28;20804;-53
2021/09/25 00:23:08;;;;;;;8.40;7.07;;;14.00;99.90;;;;;;5057201;28;20513;-53
2021/09/25 00:25:40;;;;;;;6.90;6.20;;;14.10;99.90;;;;;;5057875;28;20587;-53
2021/09/25 00:28:10;;;;;;;7.80;7.00;;;14.00;99.90;;;;;;5058118;28;20497;-51
2021/09/25 00:30:39;;;;;;;6.77;6.17;;;13.90;99.90;;;;;;5056947;28;20433;-52
2021/09/25 00:33:06;;;;;;;7.53;6.73;;;13.90;99.90;;;;;;5056678;28;20855;-55
2021/09/25 00:35:33;;;;;;;7.67;6.30;;;13.90;99.90;;;;;;5054395;28;20466;-52
2021/09/25 00:38:00;;;;;;;7.60;6.83;;;13.80;99.90;;;;;;5052641;28;20820;-52
2021/09/25 00:40:28;;;;;;;7.10;6.50;;;13.80;99.90;;;;;;5057809;28;20462;-50
2021/09/25 00:42:55;;;;;;;5.97;5.37;;;13.80;99.90;;;;;;5042012;28;20463;-53
2021/09/25 00:45:23;;;;;;;6.67;6.00;;;13.80;99.90;;;;;;5044564;28;20463;-53
2021/09/25 00:47:50;;;;;;;6.73;6.03;;;13.60;99.90;;;;;;5055637;28;20736;-54
2021/09/25 00:50:19;;;;;;;6.93;6.30;;;13.60;99.90;;;;;;5048537;28;20513;-52
2021/09/25 00:52:46;;;;;;;7.17;6.47;;;13.60;99.90;;;;;;5048057;28;20455;-53
2021/09/25 00:55:14;;;;;;;8.00;7.20;;;13.70;99.90;;;;;;5043362;28;20912;-50
2021/09/25 00:57:44;;;;;;;9.03;6.60;;;13.70;99.90;;;;;;5037413;28;20463;-54
2021/09/25 01:00:11;;;;;;;7.83;6.97;;;13.50;99.90;;;;;;5050323;28;20540;-52
2021/09/25 01:02:40;;;;;;;7.70;6.90;;;13.40;99.90;;;;;;5037276;28;20463;-50
2021/09/25 01:05:08;;;;;;;9.03;8.10;;;13.40;99.90;;;;;;5055356;28;20462;-53
2021/09/25 01:07:40;;;;;;;8.97;7.33;;;13.40;99.90;;;;;;5042522;28;20512;-52
2021/09/25 01:10:08;;;;;;;12.27;8.00;;;13.50;99.90;;;;;;5046378;28;20460;-56
2021/09/25 01:12:35;;;;;;;9.10;7.87;;;13.40;99.90;;;;;;5036502;28;20782;-55
2021/09/25 01:15:04;;;;;;;7.50;6.80;;;13.40;99.90;;;;;;5053646;28;20462;-53
2021/09/25 01:17:31;;;;;;;8.40;7.57;;;13.40;99.90;;;;;;5048619;28;20466;-54
2021/09/25 01:20:00;;;;;;;7.70;6.87;;;13.40;99.90;;;;;;5051143;28;20483;-56
2021/09/25 01:22:30;;;;;;;9.10;7.73;;;13.40;99.90;;;;;;5037459;28;20529;-54
2021/09/25 01:24:57;;;;;;;7.03;6.33;;;13.40;99.90;;;;;;5045695;28;20865;-56
2021/09/25 01:27:24;;;;;;;8.97;8.10;;;13.40;99.90;;;;;;5038690;28;20463;-54
2021/09/25 01:29:51;;;;;;;9.77;7.50;;;13.40;99.90;;;;;;5052013;28;20455;-53
2021/09/25 01:32:19;;;;;;;8.50;7.40;;;13.40;99.90;;;;;;5036775;28;20545;-52
2021/09/25 01:34:46;;;;;;;8.30;7.30;;;13.40;99.90;;;;;;5051609;28;20553;-53
2021/09/25 01:37:15;;;;;;;9.53;8.07;;;13.40;99.90;;;;;;5054959;28;20432;-55
2021/09/25 01:39:43;;;;;;;9.77;8.07;;;13.40;99.90;;;;;;5040888;28;20486;-55
2021/09/25 01:42:10;;;;;;;10.10;7.87;;;13.30;99.90;;;;;;5053638;28;20490;-52
2021/09/25 01:44:37;;;;;;;8.77;7.83;;;13.30;99.90;;;;;;5048008;28;20463;-53
2021/09/25 01:47:04;;;;;;;8.93;8.10;;;13.30;99.90;;;;;;5055921;28;20502;-54
2021/09/25 01:49:31;;;;;;;8.73;7.60;;;13.20;99.90;;;;;;5045993;28;20889;-55
2021/09/25 01:51:58;;;;;;;8.23;7.43;;;13.20;99.90;;;;;;5048663;28;20528;-56
2021/09/25 01:54:25;;;;;;;8.80;7.93;;;13.00;99.90;;;;;;5051520;28;20925;-55
2021/09/25 01:56:54;;;;;;;8.53;7.47;;;13.10;99.90;;;;;;5048134;28;20487;-53
2021/09/25 01:59:23;;;;;;;9.67;8.77;;;13.10;99.90;;;;;;5036467;28;20801;-55
2021/09/25 02:01:50;;;;;;;9.97;8.20;;;13.10;99.90;;;;;;5040113;28;20529;-55
2021/09/25 02:04:17;;;;;;;10.07;8.70;;;13.10;99.90;;;;;;5044087;28;20882;-55
2021/09/25 02:06:44;;;;;;;10.13;9.00;;;13.10;99.90;;;;;;5036454;28;20516;-56
2021/09/25 02:09:11;;;;;;;9.43;8.43;;;13.10;99.90;;;;;;5048405;28;20459;-52
2021/09/25 02:11:38;;;;;;;9.00;8.00;;;13.10;99.90;;;;;;5037214;28;20528;-57
2021/09/25 02:14:06;;;;;;;11.23;8.60;;;13.10;99.90;;;;;;5052325;28;20959;-55
2021/09/25 02:16:33;;;;;;;9.10;8.30;;;13.00;99.90;;;;;;5036974;28;20815;-57
2021/09/25 02:19:00;;;;;;;10.50;9.33;;;13.00;99.90;;;;;;5035169;28;20556;-53
2021/09/25 02:21:27;;;;;;;11.33;10.00;;;13.00;99.90;;;;;;5036591;28;20467;-55
2021/09/25 02:23:54;;;;;;;10.43;9.43;;;12.90;99.90;;;;;;5037814;28;20534;-55
2021/09/25 02:26:21;;;;;;;11.30;9.93;;;13.00;99.90;;;;;;5040393;28;21021;-55
2021/09/25 02:28:49;;;;;;;9.53;8.63;;;12.90;99.90;;;;;;5046467;28;20465;-56
2021/09/25 02:31:20;;;;;;;10.43;9.30;;;12.90;99.90;;;;;;5059225;28;20529;-57
2021/09/25 02:33:47;;;;;;;10.83;9.17;;;12.90;99.90;;;;;;5051124;28;20550;-55
2021/09/25 02:36:14;;;;;;;12.13;11.00;;;12.90;99.90;;;;;;5040183;28;20490;-53
2021/09/25 02:38:42;;;;;;;11.53;9.97;;;12.90;99.90;;;;;;5047013;28;20888;-53
2021/09/25 02:41:09;;;;;;;13.00;9.90;;;12.90;99.90;;;;;;5059411;28;20461;-55
2021/09/25 02:43:39;;;;;;;10.27;9.20;;;12.80;99.90;;;;;;5048129;28;20463;-54
2021/09/25 02:46:06;;;;;;;11.17;9.97;;;12.80;99.90;;;;;;5042976;28;20576;-54
2021/09/25 02:48:37;;;;;;;11.10;10.00;;;12.90;99.90;;;;;;5039457;28;20548;-54
2021/09/25 02:51:04;;;;;;;12.30;11.10;;;12.80;99.90;;;;;;5053411;28;20490;-56
2021/09/25 02:53:31;;;;;;;13.83;11.17;;;12.80;99.90;;;;;;5051518;28;20467;-55
2021/09/25 02:55:58;;;;;;;14.20;10.40;;;12.80;99.90;;;;;;5045630;28;20494;-54
2021/09/25 02:58:25;;;;;;;14.00;10.90;;;12.70;99.90;;;;;;5059483;28;20844;-52
2021/09/25 03:00:52;;;;;;;13.77;10.27;;;12.70;99.90;;;;;;5050734;28;20490;-53
2021/09/25 03:03:19;;;;;;;16.40;9.60;;;12.70;99.90;;;;;;5039139;28;20470;-49
2021/09/25 03:05:48;;;;;;;14.80;10.20;;;12.70;99.90;;;;;;5051840;28;20999;-53
2021/09/25 03:08:15;;;;;;;12.33;10.47;;;12.70;99.90;;;;;;5054571;28;20771;-49
2021/09/25 03:10:42;;;;;;;12.57;11.27;;;12.70;99.90;;;;;;5038955;28;20509;-49
2021/09/25 03:13:09;;;;;;;14.13;11.53;;;12.80;99.90;;;;;;5044234;28;20524;-49
2021/09/25 03:15:36;;;;;;;16.40;11.67;;;12.80;99.90;;;;;;5057512;28;20463;-54
2021/09/25 03:18:03;;;;;;;12.97;11.20;;;12.90;99.90;;;;;;5059238;28;20470;-51
2021/09/25 03:20:31;;;;;;;13.73;11.70;;;12.90;99.90;;;;;;5058964;28;20964;-52
2021/09/25 03:22:59;;;;;;;12.90;11.40;;;13.00;99.90;;;;;;5058764;28;20564;-52
2021/09/25 03:25:29;;;;;;;12.10;10.73;;;12.90;99.90;;;;;;5059162;28;20512;-56
2021/09/25 03:27:56;;;;;;;12.80;11.20;;;12.90;99.90;;;;;;5059283;28;20469;-54
2021/09/25 03:30:23;;;;;;;13.40;10.97;;;12.90;99.90;;;;;;5043464;28;20548;-54
2021/09/25 03:32:51;;;;;;;13.87;11.80;;;13.00;99.90;;;;;;5044798;28;20831;-57
2021/09/25 03:35:18;;;;;;;12.83;11.50;;;12.90;99.90;;;;;;5058164;28;20462;-55
2021/09/25 03:37:45;;;;;;;13.50;10.23;;;12.90;99.90;;;;;;5058151;28;20526;-54
2021/09/25 03:40:14;;;;;;;12.43;10.67;;;13.00;99.90;;;;;;5038789;28;20526;-54
2021/09/25 03:42:41;;;;;;;12.57;10.63;;;13.10;99.90;;;;;;5038090;28;20463;-54
2021/09/25 03:45:09;;;;;;;14.67;11.43;;;13.00;99.90;;;;;;5046530;28;20833;-53
2021/09/25 03:47:36;;;;;;;13.83;12.40;;;13.10;99.90;;;;;;5049503;28;20735;-56
2021/09/25 03:50:04;;;;;;;13.67;12.10;;;13.10;99.90;;;;;;5042000;28;20463;-55
2021/09/25 03:52:31;;;;;;;12.30;11.10;;;13.10;99.90;;;;;;5054764;28;20963;-53
2021/09/25 03:54:58;;;;;;;12.60;11.33;;;13.10;99.90;;;;;;5042785;28;20898;-50
2021/09/25 03:57:27;;;;;;;15.00;10.97;;;13.00;99.90;;;;;;5050484;28;20523;-54
2021/09/25 03:59:54;;;;;;;16.53;12.50;;;13.00;99.90;;;;;;5038224;28;20495;-50
2021/09/25 04:02:21;;;;;;;13.33;11.20;;;13.10;99.90;;;;;;5041113;28;20922;-51
2021/09/25 04:04:50;;;;;;;13.47;11.90;;;13.10;99.90;;;;;;5049319;28;20466;-55
2021/09/25 04:07:18;;;;;;;17.77;12.37;;;13.10;99.90;;;;;;5038216;28;20762;-56
2021/09/25 04:09:44;;;;;;;16.50;12.20;;;13.10;99.90;;;;;;5047023;28;20462;-50
2021/09/25 04:12:11;;;;;;;13.90;12.43;;;13.20;99.90;;;;;;5038226;28;20463;-56
2021/09/25 04:14:40;;;;;;;15.20;13.40;;;13.20;99.90;;;;;;5055196;28;20512;-54
2021/09/25 04:17:07;;;;;;;14.93;12.23;;;13.20;99.90;;;;;;5055129;28;20543;-51
2021/09/25 04:19:33;;;;;;;13.80;11.80;;;13.20;99.90;;;;;;5038898;28;20486;-55
2021/09/25 04:22:00;;;;;;;14.30;12.27;;;13.20;99.90;;;;;;5053406;28;20462;-54
2021/09/25 04:24:27;;;;;;;13.37;11.30;;;13.20;99.90;;;;;;5050344;28;20517;-56
2021/09/25 04:26:54;;;;;;;13.37;11.67;;;13.20;99.90;;;;;;5054784;28;20885;-51
2021/09/25 04:29:24;;;;;;;17.30;13.00;;;13.30;99.90;;;;;;5057219;28;20462;-51
2021/09/25 04:31:53;;;;;;;13.87;12.20;;;13.30;99.90;;;;;;5057588;28;20516;-56
2021/09/25 04:34:19;;;;;;;14.60;12.23;;;13.30;99.90;;;;;;5057667;28;20816;-51
2021/09/25 04:36:48;;;;;;;13.30;11.90;;;13.30;99.90;;;;;;5048828;28;20512;-54
2021/09/25 04:39:15;;;;;;;14.73;12.97;;;13.40;99.90;;;;;;5057251;28;20469;-55
2021/09/25 04:41:42;;;;;;;15.90;12.83;;;13.30;99.90;;;;;;5054493;28;20471;-53
2021/09/25 04:44:14;;;;;;;18.07;13.53;;;13.40;99.90;;;;;;5038050;28;20521;-53
2021/09/25 04:46:41;;;;;;;15.50;12.87;;;13.40;99.90;;;;;;5049232;28;20832;-54
2021/09/25 04:49:09;;;;;;;16.33;13.43;;;13.40;99.90;;;;;;5046042;28;20803;-53
2021/09/25 04:51:36;;;;;;;15.90;14.30;;;13.40;99.90;;;;;;5051951;28;20458;-53
2021/09/25 04:54:06;;;;;;;16.00;13.80;;;13.50;99.90;;;;;;5042261;28;20517;-57
2021/09/25 04:56:34;;;;;;;16.03;13.37;;;13.50;99.90;;;;;;5056350;28;20462;-56
2021/09/25 04:59:01;;;;;;;16.77;12.60;;;13.50;99.90;;;;;;5056171;28;20793;-52
2021/09/25 05:01:28;;;;;;;14.87;12.70;;;13.50;99.90;;;;;;5056147;28;20498;-50
2021/09/25 05:03:55;;;;;;;16.00;13.27;;;13.50;99.90;;;;;;5057075;28;20549;-56
2021/09/25 05:06:24;;;;;;;14.77;13.27;;;13.60;99.90;;;;;;5057248;28;20461;-57
2021/09/25 05:08:51;;;;;;;15.90;13.27;;;13.60;99.90;;;;;;5048417;28;20462;-55
2021/09/25 05:11:18;;;;;;;14.80;13.20;;;13.60;99.90;;;;;;5043647;28;20761;-51
2021/09/25 05:13:45;;;;;;;15.27;12.30;;;13.60;99.90;;;;;;5047412;28;20529;-54
2021/09/25 05:16:12;;;;;;;18.07;14.50;;;13.70;99.90;;;;;;5039097;28;20937;-57
2021/09/25 05:18:40;;;;;;;17.70;13.40;;;13.70;99.90;;;;;;5041112;28;20475;-51
2021/09/25 05:21:08;;;;;;;20.63;13.97;;;13.70;99.90;;;;;;5051128;28;20547;-51
2021/09/25 05:23:36;;;;;;;16.33;14.70;;;13.70;99.90;;;;;;5042933;28;20572;-53
2021/09/25 05:26:03;;;;;;;15.67;13.60;;;13.70;99.90;;;;;;5047819;28;20471;-54
2021/09/25 05:28:34;;;;;;;15.27;13.17;;;13.70;99.90;;;;;;5043586;28;20474;-56
2021/09/25 05:31:01;;;;;;;17.87;13.60;;;13.80;99.90;;;;;;5054952;28;20947;-55
2021/09/25 05:33:27;;;;;;;16.67;13.50;;;13.80;99.90;;;;;;5037993;28;20548;-57
2021/09/25 05:35:54;;;;;;;15.37;13.60;;;13.80;99.90;;;;;;5050475;28;21201;-54
2021/09/25 05:38:21;;;;;;;14.83;12.80;;;13.80;99.90;;;;;;5048856;28;20494;-54
2021/09/25 05:40:50;;;;;;;17.33;14.20;;;13.80;99.90;;;;;;5045411;28;20784;-54
2021/09/25 05:43:17;;;;;;;17.37;12.73;;;13.90;99.90;;;;;;5051203;28;20467;-51
2021/09/25 05:45:44;;;;;;;15.97;13.07;;;13.90;99.90;;;;;;5055994;28;20528;-57
2021/09/25 05:48:10;;;;;;;14.40;12.30;;;14.00;99.90;;;;;;5055041;28;20458;-55
2021/09/25 05:50:40;;;;;;;16.30;13.33;;;14.00;99.90;;;;;;5055963;28;20458;-56
2021/09/25 05:53:07;;;;;;;14.17;12.70;;;14.10;99.90;;;;;;5051592;28;20508;-56
2021/09/25 05:55:37;;;;;;;17.80;14.00;;;14.10;99.90;;;;;;5052338;28;20532;-58
2021/09/25 05:58:06;;;;;;;16.47;13.47;;;14.10;99.90;;;;;;5056830;28;20462;-54
2021/09/25 06:00:33;;;;;;;16.90;13.90;;;14.20;99.90;;;;;;5057546;28;20851;-54
2021/09/25 06:03:01;;;;;;;14.80;13.20;;;14.10;99.90;;;;;;5058826;28;20454;-54
2021/09/25 06:05:31;;;;;;;17.97;14.40;;;14.20;99.90;;;;;;5058007;28;20483;-57
2021/09/25 06:07:58;;;;;;;16.90;13.60;;;14.20;99.90;;;;;;5058868;28;20469;-52
2021/09/25 06:10:26;;;;;;;18.47;14.07;;;14.20;99.90;;;;;;5059709;28;20458;-52
2021/09/25 06:12:53;;;;;;;15.27;13.63;;;14.30;99.90;;;;;;5052332;28;20533;-55
2021/09/25 06:15:21;;;;;;;14.73;13.10;;;14.30;99.90;;;;;;5050565;28;20474;-54
2021/09/25 06:17:48;;;;;;;14.63;12.43;;;14.40;99.90;;;;;;5040511;28;20463;-54
2021/09/25 06:20:15;;;;;;;17.07;14.37;;;14.40;99.90;;;;;;5040237;28;20492;-54
2021/09/25 06:22:42;;;;;;;16.07;12.93;;;14.40;99.90;;;;;;5045534;28;20461;-54
2021/09/25 06:25:10;;;;;;;14.63;13.10;;;14.50;99.90;;;;;;5060149;28;20466;-54
2021/09/25 06:27:39;;;;;;;15.27;12.70;;;14.50;99.90;;;;;;5059673;28;20486;-56
2021/09/25 06:30:10;;;;;;;15.80;14.10;;;14.60;99.90;;;;;;5060385;28;20921;-56
2021/09/25 06:32:39;;;;;;;18.67;14.50;;;14.60;99.90;;;;;;5048079;28;20488;-55
2021/09/25 06:35:08;;;;;;;14.00;12.60;;;14.70;99.90;;;;;;5043330;28;20525;-56
2021/09/25 06:37:38;;;;;;;16.30;12.93;;;14.70;99.90;;;;;;5039390;28;20463;-51
2021/09/25 06:40:07;;;;;;;14.90;13.10;;;14.80;99.90;;;;;;5039972;28;20462;-56
2021/09/25 06:42:34;;;;;;;17.90;13.70;;;14.70;99.90;;;;;;5040187;28;20770;-56
2021/09/25 06:45:01;;;;;;;22.30;14.20;;;14.90;99.90;;;;;;5047976;28;20550;-52
2021/09/25 06:47:28;;;;;;;18.97;15.07;;;14.80;99.90;;;;;;5060300;28;20559;-53
2021/09/25 06:49:56;;;;;;;15.23;13.17;;;14.90;99.90;;;;;;5059878;28;20469;-52
2021/09/25 06:52:27;;;;;;;18.17;14.87;;;15.00;99.90;;;;;;5059657;28;20462;-58
2021/09/25 06:54:57;;;;;;;18.30;14.50;;;15.00;99.90;;;;;;5060320;28;20792;-57
2021/09/25 06:57:29;;;;;;;19.70;14.50;;;15.00;99.90;;;;;;5059310;28;21644;-56
2021/09/25 06:59:57;;;;;;;16.90;13.90;;;15.00;99.90;;;;;;5059682;28;20557;-53
2021/09/25 07:02:24;;;;;;;16.43;13.73;;;15.00;99.90;;;;;;5060167;28;20497;-51
2021/09/25 07:04:56;;;;;;;19.50;14.07;;;15.10;99.90;;;;;;5059830;28;20747;-49
2021/09/25 07:07:26;;;;;;;16.83;13.67;;;15.10;99.90;;;;;;5059900;28;20496;-56
2021/09/25 07:09:53;;;;;;;17.90;14.73;;;15.20;99.90;;;;;;5058466;28;20450;-53
2021/09/25 07:12:23;;;;;;;15.67;13.97;;;15.30;99.90;;;;;;5059073;28;20791;-55
2021/09/25 07:14:53;;;;;;;17.30;14.20;;;15.30;99.90;;;;;;5059619;28;20462;-52
2021/09/25 07:17:22;;;;;;;26.53;15.03;;;15.40;99.90;;;;;;5060035;28;20883;-51
2021/09/25 07:19:49;;;;;;;15.57;13.13;;;15.60;99.90;;;;;;5059591;28;20466;-56
2021/09/25 07:22:17;;;;;;;18.30;13.70;;;15.50;99.90;;;;;;5059205;28;20494;-48
2021/09/25 07:24:46;;;;;;;21.47;15.53;;;15.60;99.90;;;;;;5059448;28;20462;-53
2021/09/25 07:27:13;;;;;;;16.23;12.60;;;15.70;99.90;;;;;;5059612;28;20469;-51
2021/09/25 07:29:42;;;;;;;16.37;12.63;;;15.70;99.90;;;;;;5058623;28;20587;-51
2021/09/25 07:32:09;;;;;;;17.80;14.57;;;15.70;99.90;;;;;;5058263;28;20572;-54
2021/09/25 07:34:36;;;;;;;17.13;13.40;;;15.70;46.30;;;;;;5058946;28;20466;-54
2021/09/25 07:37:05;;;;;;;14.53;13.03;;;15.70;99.90;;;;;;5059168;28;20458;-54
2021/09/25 07:39:35;;;;;;;17.60;14.33;;;15.70;1.00;;;;;;5058678;28;20463;-50
2021/09/25 07:42:02;;;;;;;17.60;14.40;;;15.80;99.90;;;;;;5059230;28;20520;-54
2021/09/25 07:44:29;;;;;;;16.60;12.00;;;15.80;99.90;;;;;;5057882;28;20494;-50
2021/09/25 07:46:56;;;;;;;15.53;13.67;;;15.90;99.90;;;;;;5058421;28;20462;-52
2021/09/25 07:49:24;;;;;;;19.10;13.87;;;15.90;1.00;;;;;;5058918;28;20459;-56
2021/09/25 07:51:51;;;;;;;18.53;13.37;;;15.90;1.00;;;;;;5058940;28;20465;-57
2021/09/25 07:54:20;;;;;;;16.17;13.13;;;15.90;99.90;;;;;;5058746;28;20958;-53
2021/09/25 07:56:49;;;;;;;15.13;12.47;;;15.80;1.00;;;;;;5058660;28;20493;-48
2021/09/25 07:59:22;;;;;;;15.17;12.47;;;15.80;1.00;;;;;;5058897;28;20562;-49
2021/09/25 08:01:52;;;;;;;16.67;12.27;;;15.90;1.00;;;;;;5058257;28;20538;-50
2021/09/25 08:04:24;;;;;;;14.47;12.10;;;15.90;99.90;;;;;;5058735;28;20462;-50
2021/09/25 08:06:53;;;;;;;17.13;11.93;;;15.90;44.50;;;;;;5058485;28;20469;-50
2021/09/25 08:09:22;;;;;;;17.67;12.93;;;16.00;1.00;;;;;;5058569;28;20460;-46
2021/09/25 08:11:53;;;;;;;16.57;12.30;;;16.10;1.00;;;;;;5058260;28;20465;-50
2021/09/25 08:14:20;;;;;;;14.93;12.00;;;16.20;99.90;;;;;;5057903;28;20489;-53
2021/09/25 08:16:47;;;;;;;14.40;12.40;;;16.20;99.90;;;;;;5057945;28;20539;-49
2021/09/25 08:19:14;;;;;;;16.10;13.03;;;16.20;1.00;;;;;;5058339;28;20486;-50
2021/09/25 08:21:41;;;;;;;16.10;11.17;;;16.30;1.00;;;;;;5056277;28;20491;-47
2021/09/25 08:24:10;;;;;;;13.30;11.40;;;16.40;1.00;;;;;;5058007;28;20523;-46
2021/09/25 08:26:41;;;;;;;13.87;11.33;;;16.50;1.00;;;;;;5041201;28;20465;-52
2021/09/25 08:29:13;;;;;;;17.57;12.33;;;16.50;1.00;;;;;;5038379;28;20471;-50
2021/09/25 08:31:40;;;;;;;16.43;11.13;;;16.50;99.90;;;;;;5037874;28;20483;-49
2021/09/25 08:34:12;;;;;;;13.10;10.97;;;16.50;99.90;;;;;;5037824;28;20519;-46
2021/09/25 08:36:39;;;;;;;12.60;11.13;;;16.60;99.90;;;;;;5037889;28;20463;-48
2021/09/25 08:39:07;;;;;;;14.70;10.50;;;16.70;99.90;;;;;;5038387;28;20474;-53
2021/09/25 08:41:35;;;;;;;11.90;10.10;;;16.90;99.90;;;;;;5055250;28;20525;-48
2021/09/25 08:44:03;;;;;;;12.17;10.87;;;17.00;99.90;;;;;;5042049;28;20918;-54
2021/09/25 08:46:33;;;;;;;11.23;9.50;;;17.10;99.90;;;;;;5037775;28;20812;-51
2021/09/25 08:49:03;;;;;;;13.50;10.37;;;17.10;99.90;;;;;;5037912;28;20558;-50
2021/09/25 08:51:33;;;;;;;11.63;9.17;;;17.20;99.90;;;;;;5039833;28;20473;-51
2021/09/25 08:54:00;;;;;;;10.73;9.33;;;17.20;75.60;;;;;;5056315;28;20925;-48
2021/09/25 08:56:29;;;;;;;9.93;8.90;;;17.40;56.10;;;;;;5056328;28;20519;-55
2021/09/25 08:58:58;;;;;;;11.97;9.20;;;17.50;26.50;;;;;;5057934;28;20952;-49
2021/09/25 09:01:28;;;;;;;9.83;8.87;;;17.60;1.00;;;;;;5057671;28;20595;-51
2021/09/25 09:03:57;;;;;;;10.83;9.23;;;17.60;1.00;;;;;;5057695;28;20462;-48
2021/09/25 09:06:29;;;;;;;11.03;9.80;;;17.70;1.00;;;;;;5057534;28;20521;-49
2021/09/25 09:09:03;;;;;;;13.07;8.90;;;18.00;1.00;;;;;;5057672;28;20462;-53
2021/09/25 09:11:30;;;;;;;11.53;10.33;;;18.00;1.00;;;;;;5055836;28;20823;-49
2021/09/25 09:14:00;;;;;;;12.83;9.50;;;18.20;1.00;;;;;;5057505;28;20488;-51
2021/09/25 09:16:28;;;;;;;10.43;9.20;;;18.50;1.00;;;;;;5056836;28;20470;-50
2021/09/25 09:18:57;;;;;;;9.07;8.10;;;18.60;1.00;;;;;;5055550;28;20492;-53
2021/09/25 09:21:31;;;;;;;9.63;8.50;;;18.70;1.00;;;;;;5057228;28;20498;-52
2021/09/25 09:24:00;;;;;;;10.70;9.60;;;18.60;1.00;;;;;;5056490;28;20904;-50
2021/09/25 09:26:31;;;;;;;11.73;8.83;;;18.60;1.00;;;;;;5056644;28;20462;-52
2021/09/25 09:29:00;;;;;;;11.93;9.40;;;18.70;1.00;;;;;;5056339;28;20485;-54
2021/09/25 09:31:27;;;;;;;11.20;9.33;;;18.80;1.00;;;;;;5054955;28;20548;-50
2021/09/25 09:33:57;;;;;;;12.60;9.30;;;18.70;1.00;;;;;;5055788;28;20539;-52
2021/09/25 09:36:31;;;;;;;13.60;9.07;;;18.70;1.00;;;;;;5056287;28;20532;-48
2021/09/25 09:39:08;;;;;;;10.13;8.03;;;18.70;1.00;;;;;;5057046;28;20462;-50
2021/09/25 09:41:37;;;;;;;9.77;8.40;;;18.60;1.00;;;;;;5056459;28;20559;-52
2021/09/25 09:44:09;;;;;;;9.87;8.80;;;18.70;1.00;;;;;;5056659;28;20506;-49
2021/09/25 09:46:39;;;;;;;9.93;8.30;;;18.60;1.00;;;;;;5037102;28;20915;-47
2021/09/25 09:49:13;;;;;;;9.60;8.10;;;18.60;1.00;;;;;;5037000;28;20529;-49
2021/09/25 09:51:43;;;;;;;8.60;7.77;;;18.60;1.00;;;;;;5050319;28;20535;-50
2021/09/25 09:54:14;;;;;;;9.37;7.43;;;18.60;1.00;;;;;;5056411;28;20469;-53
2021/09/25 09:56:48;;;;;;;11.17;8.70;;;18.70;1.00;;;;;;5056383;28;20765;-47
2021/09/25 09:59:18;;;;;;;8.33;7.43;;;18.80;1.00;;;;;;5056969;28;20777;-52
2021/09/25 10:01:49;;;;;;;10.90;7.30;;;18.80;1.00;;;;;;5056628;28;20551;-50
2021/09/25 10:04:20;;;;;;;9.50;8.50;;;18.90;1.00;;;;;;5055689;28;20485;-55
2021/09/25 10:06:50;;;;;;;7.97;6.80;;;19.00;1.00;;;;;;5057274;28;20454;-51
2021/09/25 10:09:19;;;;;;;8.67;7.73;;;19.10;1.00;;;;;;5055971;28;20473;-53
2021/09/25 10:11:47;;;;;;;11.40;8.20;;;18.90;1.00;;;;;;5036644;28;20506;-51
2021/09/25 10:14:27;;;;;;;7.93;7.13;;;18.90;1.00;;;;;;5035978;28;20517;-50
2021/09/25 10:16:55;;;;;;;9.00;7.70;;;19.10;1.00;;;;;;5036373;28;20467;-52
2021/09/25 10:19:30;;;;;;;9.20;7.90;;;19.30;1.00;;;;;;5036775;28;20438;-52
2021/09/25 10:22:00;;;;;;;7.77;7.07;;;19.40;1.00;;;;;;5036322;28;20525;-49
2021/09/25 10:24:31;;;;;;;8.63;7.43;;;19.50;1.00;;;;;;5037132;28;20514;-47
2021/09/25 10:27:01;;;;;;;8.33;7.60;;;19.60;1.00;;;;;;5040638;28;20462;-49
2021/09/25 10:29:28;;;;;;;8.80;7.90;;;19.70;1.00;;;;;;5059020;28;20822;-48
2021/09/25 10:32:24;;;;;;;8.10;6.97;;;19.70;1.00;;;;;;5047095;28;20477;-49
2021/09/25 10:35:06;;;;;;;8.57;7.50;;;19.80;1.00;;;;;;5075375;28;20514;-49
2021/09/25 10:37:40;;;;;;;8.23;7.43;;;19.90;1.00;;;;;;5076413;28;20457;-50
2021/09/25 10:40:14;;;;;;;7.73;7.03;;;19.90;1.00;;;;;;5076348;28;20468;-51
2021/09/25 10:42:46;;;;;;;10.30;7.43;;;20.00;1.00;;;;;;5075768;28;20515;-50
2021/09/25 10:45:22;;;;;;;8.90;7.30;;;20.00;1.00;;;;;;5055490;28;20462;-46
2021/09/25 10:48:08;;;;;;;7.60;7.00;;;20.10;1.00;;;;;;5059997;28;20564;-49
2021/09/25 10:50:39;;;;;;;7.80;6.73;;;20.10;1.00;;;;;;5060052;28;20492;-48
2021/09/25 10:53:13;;;;;;;9.63;7.70;;;20.30;1.00;;;;;;5058954;28;20515;-50
2021/09/25 10:55:44;;;;;;;7.23;6.53;;;20.40;1.00;;;;;;5058329;28;20495;-46
2021/09/25 10:58:25;;;;;;;9.20;6.90;;;20.40;1.00;;;;;;5059370;28;20822;-54
2021/09/25 11:00:58;;;;;;;7.57;6.63;;;20.40;1.00;;;;;;5060441;28;20791;-54
2021/09/25 11:04:04;;;;;;;7.57;6.87;;;20.40;1.00;;;;;;5059874;28;20501;-48
2021/09/25 11:06:40;;;;;;;7.40;6.67;;;20.70;1.00;;;;;;5060217;28;20462;-49
2021/09/25 11:09:16;;;;;;;7.60;7.00;;;20.80;1.00;;;;;;5059401;28;20465;-52
2021/09/25 11:11:49;;;;;;;8.07;7.27;;;21.00;1.00;;;;;;5059262;28;20520;-47
2021/09/25 11:14:31;;;;;;;7.03;6.43;;;21.10;1.00;;;;;;5059070;28;20462;-52
2021/09/25 11:17:08;;;;;;;6.77;6.23;;;21.10;1.00;;;;;;5056657;28;20478;-53
2021/09/25 11:19:51;;;;;;;7.43;6.73;;;21.10;1.00;;;;;;5053781;28;20523;-48
2021/09/25 11:22:36;;;;;;;6.80;6.20;;;21.40;1.00;;;;;;5040868;28;20556;-55
2021/09/25 11:25:06;;;;;;;7.17;6.50;;;21.30;1.00;;;;;;5038915;28;20882;-50
2021/09/25 11:27:35;;;;;;;7.00;6.50;;;21.40;1.00;;;;;;5041671;28;20982;-47
2021/09/25 11:30:10;;;;;;;7.33;6.67;;;21.70;1.00;;;;;;5057782;28;20857;-50
2021/09/25 11:32:41;;;;;;;7.00;6.40;;;21.80;1.00;;;;;;5052394;28;20521;-50
2021/09/25 11:35:14;;;;;;;8.13;7.30;;;21.90;1.00;;;;;;5045248;28;20894;-50
2021/09/25 11:38:00;;;;;;;7.47;6.80;;;22.00;1.00;;;;;;5038469;28;20510;-53
2021/09/25 11:40:32;;;;;;;8.13;7.40;;;21.80;1.00;;;;;;5054424;28;20514;-53
2021/09/25 11:43:04;;;;;;;7.00;6.33;;;21.80;1.00;;;;;;5038963;28;20552;-53
2021/09/25 11:45:33;;;;;;;7.40;6.70;;;22.00;1.00;;;;;;5054250;28;20475;-49
2021/09/25 11:48:05;;;;;;;7.17;6.47;;;22.40;1.00;;;;;;5039259;28;20485;-52
2021/09/25 11:50:45;;;;;;;9.00;8.07;;;22.60;1.00;;;;;;5038579;28;20565;-52
2021/09/25 11:53:20;;;;;;;7.70;7.00;;;22.70;1.00;;;;;;5052199;28;20470;-55
2021/09/25 11:55:48;;;;;;;8.30;6.93;;;22.80;1.00;;;;;;5057803;28;20462;-55
2021/09/25 11:58:17;;;;;;;6.80;6.17;;;23.10;1.00;;;;;;5059067;28;20920;-53
2021/09/25 12:00:46;;;;;;;6.87;6.27;;;23.10;1.00;;;;;;5054749;28;20454;-52
2021/09/25 12:03:14;;;;;;;7.37;6.67;;;22.80;1.00;;;;;;5055695;28;20486;-54
2021/09/25 12:05:44;;;;;;;7.10;6.43;;;23.00;1.00;;;;;;5044876;28;20743;-50
2021/09/25 12:08:17;;;;;;;6.90;6.20;;;23.20;1.00;;;;;;5056687;28;20474;-51
2021/09/25 12:10:49;;;;;;;7.07;6.53;;;24.00;1.00;;;;;;5044770;28;20517;-52
2021/09/25 12:13:23;;;;;;;7.03;6.43;;;24.40;1.00;;;;;;5044042;28;20512;-52
2021/09/25 12:15:52;;;;;;;6.63;5.93;;;24.40;1.00;;;;;;5049660;28;20502;-50
2021/09/25 12:18:22;;;;;;;7.07;6.47;;;24.50;1.00;;;;;;5055955;28;20498;-50
2021/09/25 12:20:56;;;;;;;7.00;6.40;;;24.40;1.00;;;;;;5058173;28;20560;-49
2021/09/25 12:23:27;;;;;;;7.47;6.77;;;23.80;99.90;;;;;;5058665;28;20496;-49
2021/09/25 12:25:55;;;;;;;7.50;6.80;;;23.50;1.00;;;;;;5057709;28;20462;-49
2021/09/25 12:28:31;;;;;;;6.53;5.90;;;23.50;1.00;;;;;;5058281;28;20462;-56
2021/09/25 12:31:00;;;;;;;8.10;7.40;;;23.50;1.00;;;;;;5058458;28;20458;-46
2021/09/25 12:33:27;;;;;;;7.23;6.60;;;23.60;1.00;;;;;;5057643;28;20532;-46
2021/09/25 12:36:03;;;;;;;6.77;6.27;;;24.20;1.00;;;;;;5057566;28;20463;-55
2021/09/25 12:38:34;;;;;;;6.43;5.70;;;25.00;1.00;;;;;;5058258;28;20466;-53
2021/09/25 12:41:04;;;;;;;7.60;6.90;;;25.30;99.90;;;;;;5057259;28;20532;-52
2021/09/25 12:43:53;;;;;;;7.20;6.37;;;25.00;99.90;;;;;;5057545;28;20932;-48
2021/09/25 12:46:25;;;;;;;6.17;5.67;;;24.90;99.90;;;;;;5057728;28;20462;-51
2021/09/25 12:49:09;;;;;;;6.50;6.00;;;25.20;99.90;;;;;;5058330;28;20469;-52